Arch Cape, Oregon
Current Conditions -  °F | °C
As of 7:55 PM on Saturday 25 Oct 2014 (Local Time) from KAST Reporting Station
Broken Clouds Broken Clouds  
Wind Chill: 57°   Ceiling: 11000
Heat Index: 57°   Visibility: 10mi
Dew Point: 46°   Wind: 22mph
Humidity: 67%   Direction: 270°W
Pressure: 29.68"   Gusts: 30mph
Location:  45.8°N, 123.96°W
Report Text: KAST 260255Z AUTO 27019G26KT 10SM FEW036 SCT044 BKN110 14/08 A2968 RMK AO2 PK WND 27034/0219 SLP051 60009 T01390078 51105
Loading
Personal Weather Stations






























Interactive Weather Map New forecast layout! Learn more

10-Day Weather Forecast

Advertisements
Track Severe Weather on mobile